createdAt,value
2022-10-19T00:01:36.836Z,75.73
2022-10-19T00:04:39.890Z,74.82
2022-10-19T00:07:42.644Z,74.87
2022-10-19T00:10:45.626Z,76.34
2022-10-19T00:13:48.414Z,76.71
2022-10-19T00:16:53.190Z,77.27
2022-10-19T00:19:56.070Z,77.44
2022-10-19T00:23:00.563Z,77.75
2022-10-19T00:26:03.829Z,77.58
2022-10-19T00:29:08.570Z,77.44
2022-10-19T00:32:11.453Z,78.14
2022-10-19T00:35:14.464Z,80.81
2022-10-19T00:38:18.269Z,80.37
2022-10-19T00:41:22.855Z,80.01
2022-10-19T00:44:31.530Z,81.25
2022-10-19T00:47:34.898Z,80.97
2022-10-19T00:50:37.968Z,80.63
2022-10-19T00:53:41.666Z,79.77
2022-10-19T00:56:46.826Z,79.89
2022-10-19T00:59:50.019Z,79.77
2022-10-19T01:02:52.845Z,80.33
2022-10-19T01:05:56.028Z,80.15
2022-10-19T01:08:58.837Z,80.52
2022-10-19T01:12:20.720Z,80.42
2022-10-19T01:15:36.552Z,80.43
2022-10-19T01:18:41.715Z,79.87
2022-10-19T01:22:05.688Z,77.56
2022-10-19T01:25:24.043Z,77.15
2022-10-19T01:29:14.651Z,78.62
2022-10-19T01:32:29.781Z,79.21
2022-10-19T01:35:50.894Z,79.44
2022-10-19T01:39:00.249Z,79.50
2022-10-19T01:42:08.991Z,78.85
2022-10-19T01:45:18.176Z,77.49
2022-10-19T01:48:25.230Z,77.35
2022-10-19T01:51:34.551Z,73.56
2022-10-19T01:54:44.015Z,71.87
2022-10-19T01:57:49.539Z,71.78
2022-10-19T02:00:53.468Z,73.22
2022-10-19T02:03:57.635Z,72.25
2022-10-19T02:07:02.322Z,72.44
2022-10-19T02:10:05.321Z,72.34
2022-10-19T02:13:08.658Z,72.49
2022-10-19T02:16:17.968Z,73.44
2022-10-19T02:19:25.378Z,73.58
2022-10-19T02:22:28.885Z,73.71
2022-10-19T02:25:33.032Z,74.04
2022-10-19T02:28:35.727Z,73.73
2022-10-19T02:31:38.766Z,74.41
2022-10-19T02:34:42.242Z,74.67
2022-10-19T02:37:45.345Z,75.59
2022-10-19T02:41:06.949Z,74.56
2022-10-19T02:44:15.922Z,74.58
2022-10-19T02:47:26.618Z,75.73
2022-10-19T02:50:29.710Z,74.76
2022-10-19T02:53:32.439Z,75.85
2022-10-19T02:56:36.295Z,76.74
2022-10-19T02:59:39.014Z,77.37
2022-10-19T03:02:42.201Z,76.37
2022-10-19T03:05:44.964Z,76.74
2022-10-19T03:08:48.202Z,76.73
2022-10-19T03:11:51.229Z,75.83
2022-10-19T03:14:54.385Z,76.21
2022-10-19T03:17:57.211Z,76.37
2022-10-19T03:21:05.491Z,76.42
2022-10-19T03:24:08.204Z,77.39
2022-10-19T03:27:11.278Z,78.53
2022-10-19T03:30:14.124Z,79.56
2022-10-19T03:33:17.215Z,79.63
2022-10-19T03:36:25.587Z,79.85
2022-10-19T03:39:28.633Z,80.53
2022-10-19T03:42:31.472Z,80.87
2022-10-19T03:45:35.357Z,81.25
2022-10-19T03:48:38.277Z,81.38
2022-10-19T03:51:41.769Z,82.00
2022-10-19T03:54:44.903Z,81.85
2022-10-19T03:57:47.965Z,82.01
2022-10-19T04:00:50.821Z,82.34
2022-10-19T04:03:55.112Z,83.10
2022-10-19T04:06:57.999Z,83.96
2022-10-19T04:10:00.996Z,84.02
2022-10-19T04:13:03.723Z,84.50
2022-10-19T04:16:07.855Z,83.86
2022-10-19T04:19:14.417Z,84.60
2022-10-19T04:22:17.489Z,85.31
2022-10-19T04:25:21.499Z,85.82
2022-10-19T04:28:24.642Z,85.91
2022-10-19T04:31:29.195Z,85.83
2022-10-19T04:34:35.221Z,85.82
2022-10-19T04:37:40.425Z,86.70
2022-10-19T04:40:43.423Z,86.53
2022-10-19T04:43:46.651Z,86.67
2022-10-19T04:46:49.668Z,86.65
2022-10-19T04:49:52.691Z,86.73
2022-10-19T04:52:55.778Z,87.23
2022-10-19T04:55:58.574Z,87.53
2022-10-19T04:59:01.863Z,88.13
2022-10-19T05:02:04.722Z,88.20
2022-10-19T05:05:08.208Z,88.12
2022-10-19T05:08:11.659Z,89.62
2022-10-19T05:11:15.887Z,89.05
2022-10-19T05:14:18.626Z,89.25
2022-10-19T05:17:22.305Z,88.93
2022-10-19T05:20:25.376Z,89.23
2022-10-19T05:23:29.391Z,89.68
2022-10-19T05:26:32.182Z,92.14
2022-10-19T05:29:35.354Z,91.20
2022-10-19T05:32:38.069Z,90.28
2022-10-19T05:35:41.027Z,90.55
2022-10-19T05:38:45.183Z,91.54
2022-10-19T05:41:48.371Z,91.74
2022-10-19T05:44:51.405Z,91.04
2022-10-19T05:47:54.388Z,92.14
2022-10-19T05:50:57.670Z,91.95
2022-10-19T05:54:00.777Z,91.28
2022-10-19T05:57:04.343Z,91.98
2022-10-19T06:00:07.992Z,91.15
2022-10-19T06:03:15.667Z,91.14
2022-10-19T06:06:19.231Z,90.35
2022-10-19T06:09:22.003Z,90.63
2022-10-19T06:12:25.255Z,91.19
2022-10-19T06:15:27.999Z,91.58
2022-10-19T06:18:31.041Z,92.30
2022-10-19T06:21:34.812Z,91.86
2022-10-19T06:24:37.810Z,92.23
2022-10-19T06:27:40.607Z,91.09
2022-10-19T06:30:43.807Z,91.59
2022-10-19T06:33:49.221Z,91.00
2022-10-19T06:36:53.064Z,90.79
2022-10-19T06:39:56.825Z,90.63
2022-10-19T06:42:59.976Z,90.35
2022-10-19T06:46:08.515Z,90.56
2022-10-19T06:49:13.418Z,91.32
2022-10-19T06:52:16.151Z,89.81
2022-10-19T06:55:20.247Z,89.02
2022-10-19T06:58:22.976Z,88.63
2022-10-19T07:01:26.126Z,89.33
2022-10-19T07:04:29.416Z,89.09
2022-10-19T07:07:33.263Z,88.68
2022-10-19T07:10:37.112Z,88.45
2022-10-19T07:13:40.488Z,87.49
2022-10-19T07:16:43.396Z,87.12
2022-10-19T07:19:46.370Z,85.94
2022-10-19T07:22:49.194Z,86.44
2022-10-19T07:25:53.695Z,85.03
2022-10-19T07:28:57.702Z,84.97
2022-10-19T07:32:01.860Z,83.68
2022-10-19T07:35:06.749Z,83.21
2022-10-19T07:38:09.681Z,82.95
2022-10-19T07:41:15.913Z,83.97
2022-10-19T07:44:19.730Z,82.95
2022-10-19T07:47:22.462Z,82.65
2022-10-19T07:50:27.443Z,81.47
2022-10-19T07:53:30.229Z,81.37
2022-10-19T07:56:33.264Z,81.22
2022-10-19T07:59:36.442Z,81.19
2022-10-19T08:02:57.866Z,81.19
2022-10-19T08:06:08.579Z,80.45
2022-10-19T08:09:15.661Z,80.39
2022-10-19T08:12:26.004Z,80.14
2022-10-19T08:15:30.273Z,79.62
2022-10-19T08:18:33.422Z,79.69
2022-10-19T08:21:37.524Z,78.56
2022-10-19T08:24:40.610Z,77.85
2022-10-19T08:27:43.415Z,77.58
2022-10-19T08:30:46.649Z,75.75
2022-10-19T08:33:50.713Z,74.65
2022-10-19T08:36:54.926Z,73.99
2022-10-19T08:39:57.741Z,73.19
2022-10-19T08:43:05.824Z,72.91
2022-10-19T08:46:20.279Z,72.97
2022-10-19T08:49:26.310Z,71.73
2022-10-19T08:52:34.726Z,70.49
2022-10-19T08:56:03.625Z,70.19
2022-10-19T08:59:48.452Z,70.03
2022-10-19T09:03:37.887Z,69.08
2022-10-19T09:06:52.454Z,70.03
2022-10-19T09:09:59.601Z,69.35
2022-10-19T09:13:07.671Z,68.70
2022-10-19T09:16:19.566Z,67.91
2022-10-19T09:19:26.167Z,66.77
2022-10-19T09:22:35.281Z,66.74
2022-10-19T09:25:38.809Z,66.36
2022-10-19T09:28:58.605Z,65.48
2022-10-19T09:32:05.225Z,62.41
2022-10-19T09:35:19.331Z,61.37
2022-10-19T09:38:24.535Z,60.35
2022-10-19T09:41:27.654Z,59.43
2022-10-19T09:44:30.707Z,57.69
2022-10-19T09:47:41.255Z,56.79
2022-10-19T09:50:44.958Z,53.39
2022-10-19T09:53:51.935Z,53.61
2022-10-19T09:56:56.444Z,52.43
2022-10-19T10:00:04.928Z,49.84
2022-10-19T10:03:43.797Z,49.03
2022-10-19T10:06:48.393Z,49.52
2022-10-19T10:09:52.619Z,48.20
2022-10-19T10:12:55.743Z,48.95
2022-10-19T10:16:02.048Z,49.64
2022-10-19T10:19:12.857Z,49.07
2022-10-19T10:22:52.152Z,50.10
2022-10-19T10:25:59.673Z,50.85
2022-10-19T10:29:02.617Z,50.35
2022-10-19T10:32:09.416Z,50.36
2022-10-19T10:35:26.602Z,50.95
2022-10-19T10:38:34.021Z,51.35
2022-10-19T10:41:39.903Z,52.31
2022-10-19T10:44:49.022Z,52.48
2022-10-19T10:47:53.735Z,52.23
2022-10-19T10:50:57.868Z,51.90
2022-10-19T10:54:31.704Z,51.99
2022-10-19T10:57:41.629Z,52.06
2022-10-19T11:00:45.228Z,52.84
2022-10-19T11:03:53.371Z,52.38
2022-10-19T11:07:02.636Z,52.43
2022-10-19T11:10:14.674Z,50.80
2022-10-19T11:13:26.760Z,51.62
2022-10-19T11:16:34.167Z,50.36
2022-10-19T11:19:42.368Z,50.42
2022-10-19T11:22:53.199Z,49.63
2022-10-19T11:26:09.495Z,50.30
2022-10-19T11:29:31.483Z,49.68
2022-10-19T11:33:06.789Z,46.17
2022-10-19T11:36:23.178Z,44.96
2022-10-19T11:39:39.566Z,43.52
2022-10-19T11:42:54.448Z,43.31
2022-10-19T11:46:14.023Z,43.37
2022-10-19T11:49:31.862Z,44.90
2022-10-19T11:52:46.507Z,42.09
2022-10-19T11:56:10.867Z,41.12
2022-10-19T12:02:45.723Z,41.46
2022-10-19T12:06:09.386Z,41.53
2022-10-19T12:09:36.228Z,40.69
2022-10-19T12:12:42.900Z,41.03
2022-10-19T12:15:49.482Z,40.03
2022-10-19T12:18:55.984Z,40.58
2022-10-19T12:22:01.082Z,39.98
2022-10-19T12:25:04.930Z,40.11
2022-10-19T12:28:11.334Z,39.05
2022-10-19T12:31:14.938Z,38.69
2022-10-19T12:34:39.625Z,37.36
2022-10-19T12:37:59.991Z,35.51
2022-10-19T12:41:21.005Z,36.16
2022-10-19T12:45:01.416Z,38.62
2022-10-19T12:48:11.265Z,39.25
2022-10-19T12:51:15.978Z,39.49
2022-10-19T12:54:25.712Z,39.81
2022-10-19T12:57:29.755Z,38.83
2022-10-19T13:00:38.136Z,38.16
2022-10-19T13:03:43.075Z,37.44
2022-10-19T13:07:01.642Z,38.29
2022-10-19T13:10:07.911Z,37.40
2022-10-19T13:13:51.221Z,37.83
2022-10-19T13:17:02.557Z,38.37
2022-10-19T13:20:14.671Z,40.27
2022-10-19T13:23:17.809Z,40.50
2022-10-19T13:26:31.203Z,37.90
2022-10-19T13:29:37.281Z,37.92
2022-10-19T13:32:44.698Z,40.71
2022-10-19T13:35:47.857Z,41.24
2022-10-19T13:39:00.620Z,38.96
2022-10-19T13:42:03.996Z,40.10
2022-10-19T13:45:07.349Z,40.49
2022-10-19T13:48:26.159Z,39.92
2022-10-19T13:52:09.898Z,39.75
2022-10-19T13:55:22.055Z,39.77
2022-10-19T13:59:03.388Z,38.52
2022-10-19T14:02:22.754Z,39.37
2022-10-19T14:05:35.937Z,38.74
2022-10-19T14:09:00.603Z,35.84
2022-10-19T14:12:26.912Z,37.43
2022-10-19T14:15:34.992Z,38.01
2022-10-19T14:18:38.262Z,37.18
2022-10-19T14:21:41.386Z,37.64
2022-10-19T14:24:44.703Z,38.38
2022-10-19T14:27:48.917Z,38.80
2022-10-19T14:30:56.674Z,38.62
2022-10-19T14:34:01.869Z,39.38
2022-10-19T14:37:05.116Z,40.02
2022-10-19T14:40:26.721Z,40.90
2022-10-19T14:43:34.521Z,39.47
2022-10-19T14:46:38.402Z,38.24
2022-10-19T14:49:41.570Z,37.88
2022-10-19T14:52:44.757Z,39.44
2022-10-19T14:55:48.334Z,39.43
2022-10-19T14:58:55.492Z,40.05
2022-10-19T15:02:01.403Z,40.18
2022-10-19T15:05:05.876Z,40.02
2022-10-19T15:08:11.165Z,41.22
2022-10-19T15:11:22.442Z,40.77
2022-10-19T15:14:30.766Z,40.45
2022-10-19T15:17:36.333Z,40.26
2022-10-19T15:20:54.998Z,39.67
2022-10-19T15:24:34.908Z,39.96
2022-10-19T15:27:40.095Z,41.05
2022-10-19T15:30:42.791Z,42.06
2022-10-19T15:33:56.547Z,42.86
2022-10-19T15:37:01.045Z,44.68
2022-10-19T15:40:13.396Z,44.86
2022-10-19T15:43:34.401Z,45.04
2022-10-19T15:46:49.621Z,45.56
2022-10-19T15:49:58.632Z,46.46
2022-10-19T15:53:01.894Z,47.75
2022-10-19T15:56:04.966Z,48.15
2022-10-19T15:59:24.563Z,48.86
2022-10-19T16:02:27.437Z,49.49
2022-10-19T16:05:31.989Z,49.83
2022-10-19T16:08:34.871Z,49.97
2022-10-19T16:11:38.019Z,49.75
2022-10-19T16:14:40.824Z,50.10
2022-10-19T16:17:46.140Z,50.13
2022-10-19T16:20:49.579Z,50.46
2022-10-19T16:23:53.285Z,50.56
2022-10-19T16:26:56.781Z,50.83
2022-10-19T16:30:00.924Z,50.67
2022-10-19T16:33:04.076Z,50.89
2022-10-19T16:36:08.238Z,51.33
2022-10-19T16:39:11.513Z,51.29
2022-10-19T16:42:15.194Z,51.69
2022-10-19T16:45:18.602Z,52.67
2022-10-19T16:48:24.103Z,53.01
2022-10-19T16:51:34.728Z,53.69
2022-10-19T16:54:38.628Z,54.51
2022-10-19T16:57:41.528Z,54.61
2022-10-19T17:00:47.068Z,54.86
2022-10-19T17:03:50.241Z,55.08
2022-10-19T17:06:53.865Z,55.30
2022-10-19T17:09:57.857Z,55.63
2022-10-19T17:13:01.709Z,56.42
2022-10-19T17:16:12.028Z,56.69
2022-10-19T17:19:17.861Z,57.13
2022-10-19T17:22:22.085Z,57.81
2022-10-19T17:25:26.839Z,57.72
2022-10-19T17:28:29.875Z,58.36
2022-10-19T17:31:35.358Z,58.45
2022-10-19T17:34:41.463Z,58.99
2022-10-19T17:37:45.301Z,58.93
2022-10-19T17:40:48.427Z,59.30
2022-10-19T17:43:52.537Z,60.36
2022-10-19T17:46:56.251Z,60.93
2022-10-19T17:50:00.700Z,61.02
2022-10-19T17:53:04.346Z,60.95
2022-10-19T17:56:08.472Z,60.79
2022-10-19T17:59:11.981Z,61.51
2022-10-19T18:02:16.304Z,61.53
2022-10-19T18:05:20.079Z,60.94
2022-10-19T18:08:23.224Z,60.87
2022-10-19T18:11:40.528Z,61.17
2022-10-19T18:14:45.323Z,61.69
2022-10-19T18:17:50.173Z,62.03
2022-10-19T18:20:53.737Z,61.84
2022-10-19T18:23:59.391Z,61.30
2022-10-19T18:27:02.936Z,60.95
2022-10-19T18:30:06.760Z,62.46
2022-10-19T18:33:10.232Z,62.29
2022-10-19T18:36:15.548Z,62.48
2022-10-19T18:39:20.233Z,62.47
2022-10-19T18:42:24.784Z,62.04
2022-10-19T18:45:29.115Z,61.86
2022-10-19T18:48:33.591Z,61.89
2022-10-19T18:51:40.654Z,61.35
2022-10-19T18:54:44.510Z,61.02
2022-10-19T18:57:52.982Z,60.79
2022-10-19T19:01:24.762Z,61.04
2022-10-19T19:04:31.516Z,61.48
2022-10-19T19:07:35.666Z,61.07
2022-10-19T19:10:39.350Z,61.68
2022-10-19T19:13:48.949Z,61.84
2022-10-19T19:16:54.913Z,62.05
2022-10-19T19:19:58.668Z,62.13
2022-10-19T19:23:02.371Z,62.89
2022-10-19T19:26:08.123Z,63.35
2022-10-19T19:29:16.965Z,63.44
2022-10-19T19:32:20.748Z,63.74
2022-10-19T19:35:24.721Z,63.88
2022-10-19T19:38:30.988Z,63.56
2022-10-19T19:41:35.490Z,63.67
2022-10-19T19:44:39.338Z,63.96
2022-10-19T19:47:42.841Z,63.90
2022-10-19T19:50:47.843Z,63.97
2022-10-19T19:53:50.957Z,63.04
2022-10-19T19:56:54.755Z,65.13
2022-10-19T19:59:58.888Z,66.33
2022-10-19T20:03:02.744Z,66.85
2022-10-19T20:06:07.771Z,67.77
2022-10-19T20:09:11.829Z,68.09
2022-10-19T20:12:15.811Z,68.93
2022-10-19T20:15:20.719Z,69.51
2022-10-19T20:18:24.502Z,69.95
2022-10-19T20:21:28.250Z,70.31
2022-10-19T20:24:37.639Z,71.06
2022-10-19T20:27:41.207Z,71.49
2022-10-19T20:30:45.572Z,71.79
2022-10-19T20:33:49.084Z,71.96
2022-10-19T20:36:53.986Z,72.63
2022-10-19T20:39:58.140Z,72.96
2022-10-19T20:43:01.568Z,73.33
2022-10-19T20:46:11.211Z,73.76
2022-10-19T20:49:15.213Z,73.77
2022-10-19T20:52:18.416Z,73.91
2022-10-19T20:55:23.147Z,74.14
2022-10-19T20:58:26.066Z,74.37
2022-10-19T21:01:32.053Z,74.19
2022-10-19T21:04:36.275Z,74.38
2022-10-19T21:07:39.681Z,74.13
2022-10-19T21:10:42.848Z,74.15
2022-10-19T21:13:46.555Z,74.60
2022-10-19T21:16:49.432Z,73.10
2022-10-19T21:19:55.024Z,73.06
2022-10-19T21:22:59.815Z,72.98
2022-10-19T21:26:02.914Z,72.58
2022-10-19T21:29:09.620Z,72.61
2022-10-19T21:32:12.766Z,72.03
2022-10-19T21:35:15.567Z,72.46
2022-10-19T21:38:18.645Z,72.03
2022-10-19T21:41:25.395Z,73.73
2022-10-19T21:44:29.676Z,73.99
2022-10-19T21:47:32.914Z,74.63
2022-10-19T21:50:36.259Z,74.42
2022-10-19T21:53:39.682Z,74.53
2022-10-19T21:56:43.231Z,75.50
2022-10-19T21:59:46.272Z,75.61
2022-10-19T22:02:49.341Z,75.50
2022-10-19T22:05:52.717Z,75.68
2022-10-19T22:08:56.007Z,75.90
2022-10-19T22:11:59.211Z,76.33
2022-10-19T22:15:01.985Z,76.22
2022-10-19T22:18:05.084Z,76.15
2022-10-19T22:21:11.299Z,76.24
2022-10-19T22:24:15.510Z,76.17
2022-10-19T22:27:18.270Z,76.43
2022-10-19T22:30:21.359Z,77.30
2022-10-19T22:33:25.679Z,77.21
2022-10-19T22:36:28.744Z,77.24
2022-10-19T22:39:32.916Z,77.15
2022-10-19T22:42:36.309Z,77.43
2022-10-19T22:45:39.888Z,77.07
2022-10-19T22:48:42.995Z,76.52
2022-10-19T22:51:45.874Z,76.71
2022-10-19T22:54:50.683Z,76.92
2022-10-19T22:57:53.549Z,76.95
2022-10-19T23:01:07.775Z,77.36
2022-10-19T23:04:10.632Z,77.73
2022-10-19T23:07:13.873Z,78.00
2022-10-19T23:10:17.075Z,78.20
2022-10-19T23:13:20.262Z,78.35
2022-10-19T23:16:23.253Z,78.78
2022-10-19T23:19:26.551Z,79.29
2022-10-19T23:22:29.707Z,79.52
2022-10-19T23:28:37.909Z,79.80
2022-10-19T23:31:41.337Z,80.29
2022-10-19T23:34:47.449Z,80.65
2022-10-19T23:37:51.661Z,80.56
2022-10-19T23:40:54.861Z,80.81
2022-10-19T23:43:57.950Z,80.79
2022-10-19T23:47:01.509Z,80.68
2022-10-19T23:50:04.759Z,80.63
2022-10-19T23:53:07.619Z,80.84
2022-10-19T23:56:30.834Z,80.73
2022-10-19T23:59:33.688Z,80.90
